sensor_id;sensor_type;location;lat;lon;timestamp;P1;durP1;ratioP1;P2;durP2;ratioP2
24401;SDS011;12539;48.808;11.292;2022-08-24T00:00:12;3.08;;;2.78;;
24401;SDS011;12539;48.808;11.292;2022-08-24T00:02:43;2.80;;;2.50;;
24401;SDS011;12539;48.808;11.292;2022-08-24T00:05:09;2.65;;;2.13;;
24401;SDS011;12539;48.808;11.292;2022-08-24T00:07:35;7.88;;;1.92;;
24401;SDS011;12539;48.808;11.292;2022-08-24T00:10:02;3.80;;;2.65;;
24401;SDS011;12539;48.808;11.292;2022-08-24T00:12:30;2.92;;;2.63;;
24401;SDS011;12539;48.808;11.292;2022-08-24T00:14:56;2.72;;;2.53;;
24401;SDS011;12539;48.808;11.292;2022-08-24T00:17:23;3.67;;;2.28;;
24401;SDS011;12539;48.808;11.292;2022-08-24T00:19:49;3.45;;;2.85;;
24401;SDS011;12539;48.808;11.292;2022-08-24T00:22:15;3.90;;;2.65;;
24401;SDS011;12539;48.808;11.292;2022-08-24T00:24:41;3.47;;;2.58;;
24401;SDS011;12539;48.808;11.292;2022-08-24T00:27:07;3.65;;;2.22;;
24401;SDS011;12539;48.808;11.292;2022-08-24T00:29:33;2.20;;;1.88;;
24401;SDS011;12539;48.808;11.292;2022-08-24T00:31:59;2.25;;;1.98;;
24401;SDS011;12539;48.808;11.292;2022-08-24T00:34:24;3.00;;;2.60;;
24401;SDS011;12539;48.808;11.292;2022-08-24T00:36:52;3.03;;;2.35;;
24401;SDS011;12539;48.808;11.292;2022-08-24T00:39:18;3.45;;;2.40;;
24401;SDS011;12539;48.808;11.292;2022-08-24T00:41:45;2.92;;;2.60;;
24401;SDS011;12539;48.808;11.292;2022-08-24T00:44:13;2.75;;;2.53;;
24401;SDS011;12539;48.808;11.292;2022-08-24T00:46:41;2.90;;;2.60;;
24401;SDS011;12539;48.808;11.292;2022-08-24T00:52:06;3.03;;;2.53;;
24401;SDS011;12539;48.808;11.292;2022-08-24T00:54:42;3.83;;;2.97;;
24401;SDS011;12539;48.808;11.292;2022-08-24T00:57:24;2.53;;;2.20;;
24401;SDS011;12539;48.808;11.292;2022-08-24T00:59:57;2.55;;;2.35;;
24401;SDS011;12539;48.808;11.292;2022-08-24T01:02:30;2.97;;;2.50;;
24401;SDS011;12539;48.808;11.292;2022-08-24T01:04:59;3.17;;;2.95;;
24401;SDS011;12539;48.808;11.292;2022-08-24T01:07:29;3.80;;;2.93;;
24401;SDS011;12539;48.808;11.292;2022-08-24T01:09:58;2.90;;;2.35;;
24401;SDS011;12539;48.808;11.292;2022-08-24T01:12:28;2.90;;;2.60;;
24401;SDS011;12539;48.808;11.292;2022-08-24T01:14:55;3.28;;;3.00;;
24401;SDS011;12539;48.808;11.292;2022-08-24T01:17:23;3.63;;;3.33;;
24401;SDS011;12539;48.808;11.292;2022-08-24T01:20:11;3.15;;;2.85;;
24401;SDS011;12539;48.808;11.292;2022-08-24T01:25:18;4.13;;;3.03;;
24401;SDS011;12539;48.808;11.292;2022-08-24T01:27:45;3.40;;;3.05;;
24401;SDS011;12539;48.808;11.292;2022-08-24T01:30:13;4.55;;;3.45;;
24401;SDS011;12539;48.808;11.292;2022-08-24T01:32:42;4.65;;;2.53;;
24401;SDS011;12539;48.808;11.292;2022-08-24T01:35:20;3.75;;;3.45;;
24401;SDS011;12539;48.808;11.292;2022-08-24T01:37:47;3.35;;;2.78;;
24401;SDS011;12539;48.808;11.292;2022-08-24T01:40:13;4.53;;;3.45;;
24401;SDS011;12539;48.808;11.292;2022-08-24T01:42:39;4.63;;;3.28;;
24401;SDS011;12539;48.808;11.292;2022-08-24T01:45:11;3.47;;;3.17;;
24401;SDS011;12539;48.808;11.292;2022-08-24T01:47:36;3.25;;;2.95;;
24401;SDS011;12539;48.808;11.292;2022-08-24T01:50:02;3.90;;;3.50;;
24401;SDS011;12539;48.808;11.292;2022-08-24T01:52:29;4.20;;;3.30;;
24401;SDS011;12539;48.808;11.292;2022-08-24T01:54:55;3.40;;;3.10;;
24401;SDS011;12539;48.808;11.292;2022-08-24T01:57:23;3.92;;;3.50;;
24401;SDS011;12539;48.808;11.292;2022-08-24T01:59:50;5.60;;;3.47;;
24401;SDS011;12539;48.808;11.292;2022-08-24T02:02:24;4.35;;;3.13;;
24401;SDS011;12539;48.808;11.292;2022-08-24T02:04:53;5.70;;;2.90;;
24401;SDS011;12539;48.808;11.292;2022-08-24T02:07:19;3.60;;;3.30;;
24401;SDS011;12539;48.808;11.292;2022-08-24T02:09:45;4.60;;;3.30;;
24401;SDS011;12539;48.808;11.292;2022-08-24T02:12:11;3.17;;;2.97;;
24401;SDS011;12539;48.808;11.292;2022-08-24T02:14:37;3.70;;;3.40;;
24401;SDS011;12539;48.808;11.292;2022-08-24T02:17:04;3.50;;;3.15;;
24401;SDS011;12539;48.808;11.292;2022-08-24T02:19:31;4.78;;;3.95;;
24401;SDS011;12539;48.808;11.292;2022-08-24T02:22:00;4.18;;;2.97;;
24401;SDS011;12539;48.808;11.292;2022-08-24T02:24:26;3.30;;;3.00;;
24401;SDS011;12539;48.808;11.292;2022-08-24T02:26:53;4.63;;;3.05;;
24401;SDS011;12539;48.808;11.292;2022-08-24T02:29:19;3.97;;;3.10;;
24401;SDS011;12539;48.808;11.292;2022-08-24T02:31:45;3.95;;;2.85;;
24401;SDS011;12539;48.808;11.292;2022-08-24T02:34:11;3.83;;;3.25;;
24401;SDS011;12539;48.808;11.292;2022-08-24T02:36:37;4.93;;;3.17;;
24401;SDS011;12539;48.808;11.292;2022-08-24T02:39:04;4.00;;;3.30;;
24401;SDS011;12539;48.808;11.292;2022-08-24T02:41:30;3.70;;;2.97;;
24401;SDS011;12539;48.808;11.292;2022-08-24T02:43:56;3.53;;;3.17;;
24401;SDS011;12539;48.808;11.292;2022-08-24T02:46:24;6.03;;;3.08;;
24401;SDS011;12539;48.808;11.292;2022-08-24T02:48:52;3.45;;;2.80;;
24401;SDS011;12539;48.808;11.292;2022-08-24T02:51:23;3.58;;;3.28;;
24401;SDS011;12539;48.808;11.292;2022-08-24T02:53:51;3.45;;;3.10;;
24401;SDS011;12539;48.808;11.292;2022-08-24T02:56:17;4.72;;;3.28;;
24401;SDS011;12539;48.808;11.292;2022-08-24T02:58:44;4.63;;;3.83;;
24401;SDS011;12539;48.808;11.292;2022-08-24T03:01:11;3.25;;;2.92;;
24401;SDS011;12539;48.808;11.292;2022-08-24T03:03:37;3.90;;;3.30;;
24401;SDS011;12539;48.808;11.292;2022-08-24T03:06:04;3.65;;;3.35;;
24401;SDS011;12539;48.808;11.292;2022-08-24T03:08:31;3.70;;;3.30;;
24401;SDS011;12539;48.808;11.292;2022-08-24T03:10:57;4.30;;;3.47;;
24401;SDS011;12539;48.808;11.292;2022-08-24T03:13:24;4.63;;;3.28;;
24401;SDS011;12539;48.808;11.292;2022-08-24T03:15:54;3.80;;;3.40;;
24401;SDS011;12539;48.808;11.292;2022-08-24T03:18:22;3.95;;;3.55;;
24401;SDS011;12539;48.808;11.292;2022-08-24T03:20:50;4.25;;;3.85;;
24401;SDS011;12539;48.808;11.292;2022-08-24T03:23:16;4.15;;;3.75;;
24401;SDS011;12539;48.808;11.292;2022-08-24T03:25:42;6.43;;;3.75;;
24401;SDS011;12539;48.808;11.292;2022-08-24T03:28:08;3.47;;;3.15;;
24401;SDS011;12539;48.808;11.292;2022-08-24T03:30:36;4.15;;;3.83;;
24401;SDS011;12539;48.808;11.292;2022-08-24T03:33:03;5.18;;;3.90;;
24401;SDS011;12539;48.808;11.292;2022-08-24T03:35:30;4.75;;;3.90;;
24401;SDS011;12539;48.808;11.292;2022-08-24T03:37:56;3.30;;;3.00;;
24401;SDS011;12539;48.808;11.292;2022-08-24T03:40:21;4.25;;;3.78;;
24401;SDS011;12539;48.808;11.292;2022-08-24T03:42:48;4.43;;;4.03;;
24401;SDS011;12539;48.808;11.292;2022-08-24T03:45:14;4.00;;;3.60;;
24401;SDS011;12539;48.808;11.292;2022-08-24T03:47:40;5.15;;;4.10;;
24401;SDS011;12539;48.808;11.292;2022-08-24T03:50:05;3.80;;;3.50;;
24401;SDS011;12539;48.808;11.292;2022-08-24T03:52:32;5.40;;;4.03;;
24401;SDS011;12539;48.808;11.292;2022-08-24T03:54:58;4.03;;;3.63;;
24401;SDS011;12539;48.808;11.292;2022-08-24T03:57:24;5.88;;;4.00;;
24401;SDS011;12539;48.808;11.292;2022-08-24T03:59:50;3.90;;;3.55;;
24401;SDS011;12539;48.808;11.292;2022-08-24T04:02:15;4.10;;;3.42;;
24401;SDS011;12539;48.808;11.292;2022-08-24T04:04:41;7.43;;;4.32;;
24401;SDS011;12539;48.808;11.292;2022-08-24T04:07:07;4.78;;;4.35;;
24401;SDS011;12539;48.808;11.292;2022-08-24T04:09:32;5.45;;;4.68;;
24401;SDS011;12539;48.808;11.292;2022-08-24T04:11:58;4.80;;;4.30;;
24401;SDS011;12539;48.808;11.292;2022-08-24T04:14:24;4.82;;;4.38;;
24401;SDS011;12539;48.808;11.292;2022-08-24T04:16:50;5.10;;;4.00;;
24401;SDS011;12539;48.808;11.292;2022-08-24T04:19:16;4.97;;;4.18;;
24401;SDS011;12539;48.808;11.292;2022-08-24T04:21:42;5.13;;;4.22;;
24401;SDS011;12539;48.808;11.292;2022-08-24T04:24:08;5.53;;;5.03;;
24401;SDS011;12539;48.808;11.292;2022-08-24T04:26:35;5.90;;;4.55;;
24401;SDS011;12539;48.808;11.292;2022-08-24T04:29:04;6.22;;;5.07;;
24401;SDS011;12539;48.808;11.292;2022-08-24T04:31:33;5.30;;;4.72;;
24401;SDS011;12539;48.808;11.292;2022-08-24T04:36:30;4.45;;;3.95;;
24401;SDS011;12539;48.808;11.292;2022-08-24T04:38:56;11.88;;;6.28;;
24401;SDS011;12539;48.808;11.292;2022-08-24T04:41:22;6.72;;;5.43;;
24401;SDS011;12539;48.808;11.292;2022-08-24T04:43:48;6.97;;;5.50;;
24401;SDS011;12539;48.808;11.292;2022-08-24T04:46:16;6.35;;;4.82;;
24401;SDS011;12539;48.808;11.292;2022-08-24T04:48:44;7.22;;;4.90;;
24401;SDS011;12539;48.808;11.292;2022-08-24T04:51:12;6.95;;;5.50;;
24401;SDS011;12539;48.808;11.292;2022-08-24T04:53:41;9.35;;;6.05;;
24401;SDS011;12539;48.808;11.292;2022-08-24T04:56:09;6.65;;;5.55;;
24401;SDS011;12539;48.808;11.292;2022-08-24T04:58:36;6.20;;;4.65;;
24401;SDS011;12539;48.808;11.292;2022-08-24T05:01:23;7.07;;;5.50;;
24401;SDS011;12539;48.808;11.292;2022-08-24T05:03:51;6.82;;;5.18;;
24401;SDS011;12539;48.808;11.292;2022-08-24T05:06:18;6.20;;;5.35;;
24401;SDS011;12539;48.808;11.292;2022-08-24T05:08:45;5.05;;;4.40;;
24401;SDS011;12539;48.808;11.292;2022-08-24T05:11:12;7.00;;;4.38;;
24401;SDS011;12539;48.808;11.292;2022-08-24T05:13:38;7.50;;;5.13;;
24401;SDS011;12539;48.808;11.292;2022-08-24T05:16:09;4.47;;;4.07;;
24401;SDS011;12539;48.808;11.292;2022-08-24T05:18:39;5.22;;;4.18;;
24401;SDS011;12539;48.808;11.292;2022-08-24T05:21:06;5.80;;;4.97;;
24401;SDS011;12539;48.808;11.292;2022-08-24T05:23:34;5.32;;;4.53;;
24401;SDS011;12539;48.808;11.292;2022-08-24T05:26:12;5.45;;;4.95;;
24401;SDS011;12539;48.808;11.292;2022-08-24T05:28:39;5.88;;;4.85;;
24401;SDS011;12539;48.808;11.292;2022-08-24T05:31:16;5.57;;;4.95;;
24401;SDS011;12539;48.808;11.292;2022-08-24T05:33:44;6.00;;;4.88;;
24401;SDS011;12539;48.808;11.292;2022-08-24T05:36:17;5.28;;;4.03;;
24401;SDS011;12539;48.808;11.292;2022-08-24T05:38:43;4.28;;;3.88;;
24401;SDS011;12539;48.808;11.292;2022-08-24T05:41:09;5.47;;;4.97;;
24401;SDS011;12539;48.808;11.292;2022-08-24T05:43:35;4.85;;;4.32;;
24401;SDS011;12539;48.808;11.292;2022-08-24T05:46:01;4.40;;;3.97;;
24401;SDS011;12539;48.808;11.292;2022-08-24T05:48:26;4.45;;;4.05;;
24401;SDS011;12539;48.808;11.292;2022-08-24T05:50:53;5.47;;;4.32;;
24401;SDS011;12539;48.808;11.292;2022-08-24T05:53:20;5.20;;;4.70;;
24401;SDS011;12539;48.808;11.292;2022-08-24T05:55:46;5.13;;;4.68;;
24401;SDS011;12539;48.808;11.292;2022-08-24T05:58:12;5.25;;;4.75;;
24401;SDS011;12539;48.808;11.292;2022-08-24T06:00:38;4.85;;;4.22;;
24401;SDS011;12539;48.808;11.292;2022-08-24T06:03:04;5.20;;;4.03;;
24401;SDS011;12539;48.808;11.292;2022-08-24T06:05:29;6.70;;;4.32;;
24401;SDS011;12539;48.808;11.292;2022-08-24T06:07:55;6.68;;;5.18;;
24401;SDS011;12539;48.808;11.292;2022-08-24T06:10:21;4.93;;;4.43;;
24401;SDS011;12539;48.808;11.292;2022-08-24T06:12:46;3.45;;;3.05;;
24401;SDS011;12539;48.808;11.292;2022-08-24T06:15:12;7.15;;;4.45;;
24401;SDS011;12539;48.808;11.292;2022-08-24T06:17:39;5.00;;;4.45;;
24401;SDS011;12539;48.808;11.292;2022-08-24T06:20:05;3.78;;;3.47;;
24401;SDS011;12539;48.808;11.292;2022-08-24T06:22:32;4.50;;;4.10;;
24401;SDS011;12539;48.808;11.292;2022-08-24T06:24:58;4.10;;;3.60;;
24401;SDS011;12539;48.808;11.292;2022-08-24T06:27:42;3.22;;;2.92;;
24401;SDS011;12539;48.808;11.292;2022-08-24T06:30:09;4.13;;;3.72;;
24401;SDS011;12539;48.808;11.292;2022-08-24T06:32:36;4.20;;;3.80;;
24401;SDS011;12539;48.808;11.292;2022-08-24T06:35:03;4.78;;;3.28;;
24401;SDS011;12539;48.808;11.292;2022-08-24T06:37:30;4.65;;;4.25;;
24401;SDS011;12539;48.808;11.292;2022-08-24T06:39:55;4.65;;;3.67;;
24401;SDS011;12539;48.808;11.292;2022-08-24T06:42:22;3.80;;;3.20;;
24401;SDS011;12539;48.808;11.292;2022-08-24T06:44:53;4.57;;;3.83;;
24401;SDS011;12539;48.808;11.292;2022-08-24T06:47:19;5.15;;;4.03;;
24401;SDS011;12539;48.808;11.292;2022-08-24T06:49:46;3.50;;;2.97;;
24401;SDS011;12539;48.808;11.292;2022-08-24T06:52:11;4.13;;;3.80;;
24401;SDS011;12539;48.808;11.292;2022-08-24T06:54:37;3.97;;;2.90;;
24401;SDS011;12539;48.808;11.292;2022-08-24T06:57:04;3.95;;;3.13;;
24401;SDS011;12539;48.808;11.292;2022-08-24T06:59:31;3.90;;;3.28;;
24401;SDS011;12539;48.808;11.292;2022-08-24T07:01:57;4.03;;;2.78;;
24401;SDS011;12539;48.808;11.292;2022-08-24T07:04:24;4.40;;;4.00;;
24401;SDS011;12539;48.808;11.292;2022-08-24T07:06:51;3.45;;;3.15;;
24401;SDS011;12539;48.808;11.292;2022-08-24T07:09:17;4.22;;;3.30;;
24401;SDS011;12539;48.808;11.292;2022-08-24T07:11:43;2.83;;;2.63;;
24401;SDS011;12539;48.808;11.292;2022-08-24T07:14:09;3.40;;;3.10;;
24401;SDS011;12539;48.808;11.292;2022-08-24T07:16:35;4.28;;;3.33;;
24401;SDS011;12539;48.808;11.292;2022-08-24T07:19:01;3.33;;;3.03;;
24401;SDS011;12539;48.808;11.292;2022-08-24T07:21:28;4.13;;;3.35;;
24401;SDS011;12539;48.808;11.292;2022-08-24T07:23:56;3.28;;;2.92;;
24401;SDS011;12539;48.808;11.292;2022-08-24T07:26:24;3.05;;;2.78;;
24401;SDS011;12539;48.808;11.292;2022-08-24T07:28:52;2.60;;;2.40;;
24401;SDS011;12539;48.808;11.292;2022-08-24T07:31:20;2.92;;;2.63;;
24401;SDS011;12539;48.808;11.292;2022-08-24T07:33:45;3.22;;;2.92;;
24401;SDS011;12539;48.808;11.292;2022-08-24T07:36:12;7.97;;;3.30;;
24401;SDS011;12539;48.808;11.292;2022-08-24T07:38:39;4.82;;;2.92;;
24401;SDS011;12539;48.808;11.292;2022-08-24T07:41:04;3.42;;;3.13;;
24401;SDS011;12539;48.808;11.292;2022-08-24T07:43:30;3.83;;;3.50;;
24401;SDS011;12539;48.808;11.292;2022-08-24T07:45:56;5.43;;;3.55;;
24401;SDS011;12539;48.808;11.292;2022-08-24T07:48:23;6.47;;;3.75;;
24401;SDS011;12539;48.808;11.292;2022-08-24T07:50:49;5.38;;;4.30;;
24401;SDS011;12539;48.808;11.292;2022-08-24T07:53:14;5.20;;;3.75;;
24401;SDS011;12539;48.808;11.292;2022-08-24T07:55:40;6.82;;;4.07;;
24401;SDS011;12539;48.808;11.292;2022-08-24T07:58:07;4.95;;;3.53;;
24401;SDS011;12539;48.808;11.292;2022-08-24T08:00:33;4.95;;;2.97;;
24401;SDS011;12539;48.808;11.292;2022-08-24T08:03:00;5.18;;;3.78;;
24401;SDS011;12539;48.808;11.292;2022-08-24T08:05:28;23.25;;;4.60;;
24401;SDS011;12539;48.808;11.292;2022-08-24T08:07:54;5.07;;;3.38;;
24401;SDS011;12539;48.808;11.292;2022-08-24T08:10:20;14.27;;;4.03;;
24401;SDS011;12539;48.808;11.292;2022-08-24T08:12:47;12.07;;;4.53;;
24401;SDS011;12539;48.808;11.292;2022-08-24T08:15:13;19.10;;;4.22;;
24401;SDS011;12539;48.808;11.292;2022-08-24T08:17:38;18.08;;;4.72;;
24401;SDS011;12539;48.808;11.292;2022-08-24T08:20:05;6.05;;;2.72;;
24401;SDS011;12539;48.808;11.292;2022-08-24T08:22:32;6.55;;;3.28;;
24401;SDS011;12539;48.808;11.292;2022-08-24T08:25:17;3.83;;;3.50;;
24401;SDS011;12539;48.808;11.292;2022-08-24T08:27:43;7.13;;;3.25;;
24401;SDS011;12539;48.808;11.292;2022-08-24T08:30:09;3.60;;;3.28;;
24401;SDS011;12539;48.808;11.292;2022-08-24T08:32:35;11.52;;;3.83;;
24401;SDS011;12539;48.808;11.292;2022-08-24T08:35:01;8.77;;;3.78;;
24401;SDS011;12539;48.808;11.292;2022-08-24T08:37:27;4.53;;;3.38;;
24401;SDS011;12539;48.808;11.292;2022-08-24T08:39:53;3.30;;;3.00;;
24401;SDS011;12539;48.808;11.292;2022-08-24T08:53:43;3.80;;;3.40;;
24401;SDS011;12539;48.808;11.292;2022-08-24T08:59:15;5.35;;;3.33;;
24401;SDS011;12539;48.808;11.292;2022-08-24T09:09:50;7.18;;;2.55;;
24401;SDS011;12539;48.808;11.292;2022-08-24T09:13:00;3.95;;;2.72;;
24401;SDS011;12539;48.808;11.292;2022-08-24T09:29:34;5.65;;;2.47;;
24401;SDS011;12539;48.808;11.292;2022-08-24T09:37:29;3.60;;;2.20;;
24401;SDS011;12539;48.808;11.292;2022-08-24T09:45:18;1.75;;;1.50;;
24401;SDS011;12539;48.808;11.292;2022-08-24T09:51:07;4.38;;;1.70;;
24401;SDS011;12539;48.808;11.292;2022-08-24T09:56:47;6.40;;;2.28;;
24401;SDS011;12539;48.808;11.292;2022-08-24T10:05:19;2.25;;;1.55;;
24401;SDS011;12539;48.808;11.292;2022-08-24T10:13:39;2.15;;;1.60;;
24401;SDS011;12539;48.808;11.292;2022-08-24T10:16:37;2.28;;;1.63;;
24401;SDS011;12539;48.808;11.292;2022-08-24T10:31:02;1.70;;;1.60;;
24401;SDS011;12539;48.808;11.292;2022-08-24T10:39:16;2.58;;;1.75;;
24401;SDS011;12539;48.808;11.292;2022-08-24T10:53:25;1.98;;;1.02;;
24401;SDS011;12539;48.808;11.292;2022-08-24T10:55:59;2.65;;;1.30;;
24401;SDS011;12539;48.808;11.292;2022-08-24T11:01:33;3.38;;;1.48;;
24401;SDS011;12539;48.808;11.292;2022-08-24T11:06:38;2.92;;;1.83;;
24401;SDS011;12539;48.808;11.292;2022-08-24T11:09:08;2.15;;;1.30;;
24401;SDS011;12539;48.808;11.292;2022-08-24T11:16:53;2.03;;;1.60;;
24401;SDS011;12539;48.808;11.292;2022-08-24T11:19:48;1.77;;;1.60;;
24401;SDS011;12539;48.808;11.292;2022-08-24T11:30:58;1.50;;;1.40;;
24401;SDS011;12539;48.808;11.292;2022-08-24T11:33:31;3.33;;;1.42;;
24401;SDS011;12539;48.808;11.292;2022-08-24T11:36:13;1.50;;;1.38;;
24401;SDS011;12539;48.808;11.292;2022-08-24T11:38:41;1.55;;;1.40;;
24401;SDS011;12539;48.808;11.292;2022-08-24T11:41:17;1.15;;;1.05;;
24401;SDS011;12539;48.808;11.292;2022-08-24T11:49:46;2.35;;;1.30;;
24401;SDS011;12539;48.808;11.292;2022-08-24T11:55:16;2.70;;;1.30;;
24401;SDS011;12539;48.808;11.292;2022-08-24T12:00:51;1.77;;;1.52;;
24401;SDS011;12539;48.808;11.292;2022-08-24T12:06:29;3.05;;;1.45;;
24401;SDS011;12539;48.808;11.292;2022-08-24T12:12:03;5.65;;;1.40;;
24401;SDS011;12539;48.808;11.292;2022-08-24T12:14:39;1.92;;;1.45;;
24401;SDS011;12539;48.808;11.292;2022-08-24T12:22:21;2.53;;;1.27;;
24401;SDS011;12539;48.808;11.292;2022-08-24T12:24:53;2.47;;;1.30;;
24401;SDS011;12539;48.808;11.292;2022-08-24T12:27:25;2.13;;;1.55;;
24401;SDS011;12539;48.808;11.292;2022-08-24T12:29:56;3.33;;;1.90;;
24401;SDS011;12539;48.808;11.292;2022-08-24T12:32:29;2.67;;;1.40;;
24401;SDS011;12539;48.808;11.292;2022-08-24T12:35:20;3.05;;;1.60;;
24401;SDS011;12539;48.808;11.292;2022-08-24T12:37:56;2.85;;;1.90;;
24401;SDS011;12539;48.808;11.292;2022-08-24T12:41:00;1.77;;;1.55;;
24401;SDS011;12539;48.808;11.292;2022-08-24T12:45:55;2.22;;;1.65;;
24401;SDS011;12539;48.808;11.292;2022-08-24T12:48:35;2.47;;;1.35;;
24401;SDS011;12539;48.808;11.292;2022-08-24T13:01:45;1.75;;;1.33;;
24401;SDS011;12539;48.808;11.292;2022-08-24T13:07:25;1.40;;;1.30;;
24401;SDS011;12539;48.808;11.292;2022-08-24T13:18:25;1.70;;;1.23;;
24401;SDS011;12539;48.808;11.292;2022-08-24T13:41:51;3.63;;;1.40;;
24401;SDS011;12539;48.808;11.292;2022-08-24T14:07:27;2.47;;;1.52;;
24401;SDS011;12539;48.808;11.292;2022-08-24T14:10:33;2.08;;;1.25;;
24401;SDS011;12539;48.808;11.292;2022-08-24T14:21:40;2.30;;;1.58;;
24401;SDS011;12539;48.808;11.292;2022-08-24T14:24:30;2.25;;;1.60;;
24401;SDS011;12539;48.808;11.292;2022-08-24T14:27:10;8.68;;;2.10;;
24401;SDS011;12539;48.808;11.292;2022-08-24T14:29:40;10.77;;;1.92;;
24401;SDS011;12539;48.808;11.292;2022-08-24T14:42:40;1.90;;;1.75;;
24401;SDS011;12539;48.808;11.292;2022-08-24T14:56:42;1.45;;;1.23;;
24401;SDS011;12539;48.808;11.292;2022-08-24T15:07:50;1.58;;;1.42;;
24401;SDS011;12539;48.808;11.292;2022-08-24T15:10:22;2.90;;;1.38;;
24401;SDS011;12539;48.808;11.292;2022-08-24T15:13:03;1.23;;;1.13;;
24401;SDS011;12539;48.808;11.292;2022-08-24T15:15:48;3.30;;;1.45;;
24401;SDS011;12539;48.808;11.292;2022-08-24T15:21:21;2.03;;;1.70;;
24401;SDS011;12539;48.808;11.292;2022-08-24T15:24:02;2.05;;;1.85;;
24401;SDS011;12539;48.808;11.292;2022-08-24T15:29:16;1.52;;;1.42;;
24401;SDS011;12539;48.808;11.292;2022-08-24T15:31:55;3.97;;;2.40;;
24401;SDS011;12539;48.808;11.292;2022-08-24T15:34:31;2.38;;;2.17;;
24401;SDS011;12539;48.808;11.292;2022-08-24T15:39:54;5.88;;;2.58;;
24401;SDS011;12539;48.808;11.292;2022-08-24T15:42:20;4.35;;;2.97;;
24401;SDS011;12539;48.808;11.292;2022-08-24T15:44:47;2.92;;;2.63;;
24401;SDS011;12539;48.808;11.292;2022-08-24T15:55:07;2.30;;;2.10;;
24401;SDS011;12539;48.808;11.292;2022-08-24T15:57:50;3.65;;;3.33;;
24401;SDS011;12539;48.808;11.292;2022-08-24T16:00:17;2.78;;;2.53;;
24401;SDS011;12539;48.808;11.292;2022-08-24T16:03:18;2.22;;;2.03;;
24401;SDS011;12539;48.808;11.292;2022-08-24T16:05:49;2.50;;;2.30;;
24401;SDS011;12539;48.808;11.292;2022-08-24T16:08:17;3.08;;;2.55;;
24401;SDS011;12539;48.808;11.292;2022-08-24T16:16:03;2.03;;;1.83;;
24401;SDS011;12539;48.808;11.292;2022-08-24T16:18:49;2.55;;;1.95;;
24401;SDS011;12539;48.808;11.292;2022-08-24T16:23:53;3.20;;;2.38;;
24401;SDS011;12539;48.808;11.292;2022-08-24T16:27:00;2.28;;;1.98;;
24401;SDS011;12539;48.808;11.292;2022-08-24T16:32:08;2.17;;;1.90;;
24401;SDS011;12539;48.808;11.292;2022-08-24T16:34:41;3.10;;;2.17;;
24401;SDS011;12539;48.808;11.292;2022-08-24T16:37:12;2.35;;;2.00;;
24401;SDS011;12539;48.808;11.292;2022-08-24T16:39:39;3.58;;;2.55;;
24401;SDS011;12539;48.808;11.292;2022-08-24T16:42:06;2.20;;;1.98;;
24401;SDS011;12539;48.808;11.292;2022-08-24T16:44:40;2.90;;;1.63;;
24401;SDS011;12539;48.808;11.292;2022-08-24T16:47:08;2.00;;;1.80;;
24401;SDS011;12539;48.808;11.292;2022-08-24T16:49:34;2.22;;;1.80;;
24401;SDS011;12539;48.808;11.292;2022-08-24T16:52:01;2.47;;;2.13;;
24401;SDS011;12539;48.808;11.292;2022-08-24T16:54:28;2.20;;;2.00;;
24401;SDS011;12539;48.808;11.292;2022-08-24T16:56:56;2.10;;;1.90;;
24401;SDS011;12539;48.808;11.292;2022-08-24T16:59:36;2.25;;;1.65;;
24401;SDS011;12539;48.808;11.292;2022-08-24T17:02:02;2.17;;;1.40;;
24401;SDS011;12539;48.808;11.292;2022-08-24T17:04:28;2.80;;;2.45;;
24401;SDS011;12539;48.808;11.292;2022-08-24T17:06:54;3.72;;;2.40;;
24401;SDS011;12539;48.808;11.292;2022-08-24T17:09:20;3.33;;;2.13;;
24401;SDS011;12539;48.808;11.292;2022-08-24T17:11:46;3.42;;;2.38;;
24401;SDS011;12539;48.808;11.292;2022-08-24T17:14:13;2.00;;;1.80;;
24401;SDS011;12539;48.808;11.292;2022-08-24T17:16:40;3.05;;;2.75;;
24401;SDS011;12539;48.808;11.292;2022-08-24T17:19:13;2.90;;;2.63;;
24401;SDS011;12539;48.808;11.292;2022-08-24T17:21:42;2.67;;;2.42;;
24401;SDS011;12539;48.808;11.292;2022-08-24T17:24:08;8.40;;;3.15;;
24401;SDS011;12539;48.808;11.292;2022-08-24T17:26:35;5.30;;;3.45;;
24401;SDS011;12539;48.808;11.292;2022-08-24T17:29:02;3.90;;;3.35;;
24401;SDS011;12539;48.808;11.292;2022-08-24T17:31:30;3.50;;;3.13;;
24401;SDS011;12539;48.808;11.292;2022-08-24T17:33:57;5.43;;;3.33;;
24401;SDS011;12539;48.808;11.292;2022-08-24T17:36:24;3.47;;;2.33;;
24401;SDS011;12539;48.808;11.292;2022-08-24T17:38:51;4.20;;;3.80;;
24401;SDS011;12539;48.808;11.292;2022-08-24T17:41:19;2.65;;;2.17;;
24401;SDS011;12539;48.808;11.292;2022-08-24T17:43:45;3.15;;;2.42;;
24401;SDS011;12539;48.808;11.292;2022-08-24T17:46:11;8.38;;;4.03;;
24401;SDS011;12539;48.808;11.292;2022-08-24T17:48:39;4.43;;;3.13;;
24401;SDS011;12539;48.808;11.292;2022-08-24T17:51:07;3.97;;;3.25;;
24401;SDS011;12539;48.808;11.292;2022-08-24T17:53:33;5.10;;;3.88;;
24401;SDS011;12539;48.808;11.292;2022-08-24T17:56:00;4.22;;;3.58;;
24401;SDS011;12539;48.808;11.292;2022-08-24T17:58:30;4.93;;;4.38;;
24401;SDS011;12539;48.808;11.292;2022-08-24T18:00:56;3.85;;;2.53;;
24401;SDS011;12539;48.808;11.292;2022-08-24T18:03:22;4.20;;;3.63;;
24401;SDS011;12539;48.808;11.292;2022-08-24T18:05:48;5.90;;;4.45;;
24401;SDS011;12539;48.808;11.292;2022-08-24T18:08:14;2.28;;;2.08;;
24401;SDS011;12539;48.808;11.292;2022-08-24T18:10:40;3.28;;;2.97;;
24401;SDS011;12539;48.808;11.292;2022-08-24T18:13:05;2.28;;;1.90;;
24401;SDS011;12539;48.808;11.292;2022-08-24T18:15:33;6.50;;;4.57;;
24401;SDS011;12539;48.808;11.292;2022-08-24T18:18:00;4.93;;;4.43;;
24401;SDS011;12539;48.808;11.292;2022-08-24T18:20:36;4.22;;;3.83;;
24401;SDS011;12539;48.808;11.292;2022-08-24T18:23:04;4.43;;;3.95;;
24401;SDS011;12539;48.808;11.292;2022-08-24T18:25:30;6.50;;;4.72;;
24401;SDS011;12539;48.808;11.292;2022-08-24T18:28:00;5.97;;;5.20;;
24401;SDS011;12539;48.808;11.292;2022-08-24T18:30:27;6.45;;;4.78;;
24401;SDS011;12539;48.808;11.292;2022-08-24T18:32:53;5.70;;;4.85;;
24401;SDS011;12539;48.808;11.292;2022-08-24T18:35:19;6.45;;;4.97;;
24401;SDS011;12539;48.808;11.292;2022-08-24T18:37:46;5.60;;;4.63;;
24401;SDS011;12539;48.808;11.292;2022-08-24T18:40:13;5.50;;;3.83;;
24401;SDS011;12539;48.808;11.292;2022-08-24T18:42:40;7.05;;;5.25;;
24401;SDS011;12539;48.808;11.292;2022-08-24T18:45:07;5.38;;;4.88;;
24401;SDS011;12539;48.808;11.292;2022-08-24T18:47:35;6.10;;;4.95;;
24401;SDS011;12539;48.808;11.292;2022-08-24T18:50:03;7.20;;;5.30;;
24401;SDS011;12539;48.808;11.292;2022-08-24T18:52:30;6.10;;;5.50;;
24401;SDS011;12539;48.808;11.292;2022-08-24T18:54:56;5.55;;;4.90;;
24401;SDS011;12539;48.808;11.292;2022-08-24T18:57:22;5.45;;;4.95;;
24401;SDS011;12539;48.808;11.292;2022-08-24T18:59:48;5.90;;;4.53;;
24401;SDS011;12539;48.808;11.292;2022-08-24T19:02:19;6.70;;;6.00;;
24401;SDS011;12539;48.808;11.292;2022-08-24T19:05:15;6.97;;;6.28;;
24401;SDS011;12539;48.808;11.292;2022-08-24T19:07:44;5.07;;;4.57;;
24401;SDS011;12539;48.808;11.292;2022-08-24T19:10:13;5.63;;;4.97;;
24401;SDS011;12539;48.808;11.292;2022-08-24T19:12:42;7.97;;;5.80;;
24401;SDS011;12539;48.808;11.292;2022-08-24T19:15:11;6.85;;;5.75;;
24401;SDS011;12539;48.808;11.292;2022-08-24T19:17:38;7.45;;;5.68;;
24401;SDS011;12539;48.808;11.292;2022-08-24T19:20:05;6.22;;;5.40;;
24401;SDS011;12539;48.808;11.292;2022-08-24T19:22:32;7.32;;;6.60;;
24401;SDS011;12539;48.808;11.292;2022-08-24T19:24:58;6.63;;;5.85;;